sensor_id;sensor_type;location;lat;lon;timestamp;temperature;humidity
12841;DHT22;6487;48.626;12.486;2022-09-16T00:01:11;13.70;99.90
12841;DHT22;6487;48.626;12.486;2022-09-16T00:03:40;13.70;99.90
12841;DHT22;6487;48.626;12.486;2022-09-16T00:06:16;13.70;99.90
12841;DHT22;6487;48.626;12.486;2022-09-16T00:08:48;13.70;99.90
12841;DHT22;6487;48.626;12.486;2022-09-16T00:11:17;13.70;99.90
12841;DHT22;6487;48.626;12.486;2022-09-16T00:13:46;13.60;99.90
12841;DHT22;6487;48.626;12.486;2022-09-16T00:16:18;13.60;99.90
12841;DHT22;6487;48.626;12.486;2022-09-16T00:18:48;13.60;99.90
12841;DHT22;6487;48.626;12.486;2022-09-16T00:21:19;13.50;99.90
12841;DHT22;6487;48.626;12.486;2022-09-16T00:23:49;13.50;99.90
12841;DHT22;6487;48.626;12.486;2022-09-16T00:26:18;13.30;99.90
12841;DHT22;6487;48.626;12.486;2022-09-16T00:28:47;13.40;99.90
12841;DHT22;6487;48.626;12.486;2022-09-16T00:31:16;13.40;99.90
12841;DHT22;6487;48.626;12.486;2022-09-16T00:33:45;13.30;99.90
12841;DHT22;6487;48.626;12.486;2022-09-16T00:36:15;13.40;99.90
12841;DHT22;6487;48.626;12.486;2022-09-16T00:38:44;13.40;99.90
12841;DHT22;6487;48.626;12.486;2022-09-16T00:41:17;13.40;99.90
12841;DHT22;6487;48.626;12.486;2022-09-16T00:43:53;13.40;99.90
12841;DHT22;6487;48.626;12.486;2022-09-16T00:46:27;13.30;99.90
12841;DHT22;6487;48.626;12.486;2022-09-16T00:49:01;13.30;99.90
12841;DHT22;6487;48.626;12.486;2022-09-16T00:51:32;13.20;99.90
12841;DHT22;6487;48.626;12.486;2022-09-16T00:54:02;13.20;99.90
12841;DHT22;6487;48.626;12.486;2022-09-16T00:56:35;13.10;99.90
12841;DHT22;6487;48.626;12.486;2022-09-16T00:59:07;13.10;99.90
12841;DHT22;6487;48.626;12.486;2022-09-16T01:01:39;13.10;99.90
12841;DHT22;6487;48.626;12.486;2022-09-16T01:04:14;13.10;99.90
12841;DHT22;6487;48.626;12.486;2022-09-16T01:06:45;13.00;99.90
12841;DHT22;6487;48.626;12.486;2022-09-16T01:09:14;13.00;99.90
12841;DHT22;6487;48.626;12.486;2022-09-16T01:11:43;13.00;99.90
12841;DHT22;6487;48.626;12.486;2022-09-16T01:14:12;13.00;99.90
12841;DHT22;6487;48.626;12.486;2022-09-16T01:17:03;13.00;99.90
12841;DHT22;6487;48.626;12.486;2022-09-16T01:19:50;13.00;99.90
12841;DHT22;6487;48.626;12.486;2022-09-16T01:22:44;12.90;99.90
12841;DHT22;6487;48.626;12.486;2022-09-16T01:25:27;12.80;99.90
12841;DHT22;6487;48.626;12.486;2022-09-16T01:28:30;12.80;99.90
12841;DHT22;6487;48.626;12.486;2022-09-16T01:31:14;12.80;99.90
12841;DHT22;6487;48.626;12.486;2022-09-16T01:33:51;12.80;99.90
12841;DHT22;6487;48.626;12.486;2022-09-16T01:36:31;12.80;99.90
12841;DHT22;6487;48.626;12.486;2022-09-16T01:39:11;12.80;99.90
12841;DHT22;6487;48.626;12.486;2022-09-16T01:44:47;12.70;99.90
12841;DHT22;6487;48.626;12.486;2022-09-16T01:47:30;12.70;99.90
12841;DHT22;6487;48.626;12.486;2022-09-16T01:50:07;12.70;99.90
12841;DHT22;6487;48.626;12.486;2022-09-16T01:52:44;12.70;99.90
12841;DHT22;6487;48.626;12.486;2022-09-16T01:55:23;12.70;99.90
12841;DHT22;6487;48.626;12.486;2022-09-16T01:57:59;12.70;99.90
12841;DHT22;6487;48.626;12.486;2022-09-16T02:00:32;12.70;99.90
12841;DHT22;6487;48.626;12.486;2022-09-16T02:03:05;12.70;99.90
12841;DHT22;6487;48.626;12.486;2022-09-16T02:05:38;12.70;99.90
12841;DHT22;6487;48.626;12.486;2022-09-16T02:08:11;12.60;99.90
12841;DHT22;6487;48.626;12.486;2022-09-16T02:10:43;12.60;99.90
12841;DHT22;6487;48.626;12.486;2022-09-16T02:13:18;12.50;99.90
12841;DHT22;6487;48.626;12.486;2022-09-16T02:15:50;12.50;99.90
12841;DHT22;6487;48.626;12.486;2022-09-16T02:18:23;12.60;99.90
12841;DHT22;6487;48.626;12.486;2022-09-16T02:20:57;12.60;99.90
12841;DHT22;6487;48.626;12.486;2022-09-16T02:23:29;12.70;99.90
12841;DHT22;6487;48.626;12.486;2022-09-16T02:26:02;12.70;99.90
12841;DHT22;6487;48.626;12.486;2022-09-16T02:28:35;12.70;99.90
12841;DHT22;6487;48.626;12.486;2022-09-16T02:31:06;12.70;99.90
12841;DHT22;6487;48.626;12.486;2022-09-16T02:33:40;12.80;99.90
12841;DHT22;6487;48.626;12.486;2022-09-16T02:38:46;12.70;99.90
12841;DHT22;6487;48.626;12.486;2022-09-16T02:41:16;12.70;99.90
12841;DHT22;6487;48.626;12.486;2022-09-16T02:43:45;12.80;99.90
12841;DHT22;6487;48.626;12.486;2022-09-16T02:46:19;12.80;99.90
12841;DHT22;6487;48.626;12.486;2022-09-16T02:48:57;12.80;99.90
12841;DHT22;6487;48.626;12.486;2022-09-16T02:51:37;12.80;99.90
12841;DHT22;6487;48.626;12.486;2022-09-16T02:54:17;12.80;99.90
12841;DHT22;6487;48.626;12.486;2022-09-16T02:56:48;12.80;99.90
12841;DHT22;6487;48.626;12.486;2022-09-16T02:59:17;12.80;99.90
12841;DHT22;6487;48.626;12.486;2022-09-16T03:01:46;12.90;99.90
12841;DHT22;6487;48.626;12.486;2022-09-16T03:04:17;12.90;99.90
12841;DHT22;6487;48.626;12.486;2022-09-16T03:06:47;12.90;99.90
12841;DHT22;6487;48.626;12.486;2022-09-16T03:09:16;12.90;99.90
12841;DHT22;6487;48.626;12.486;2022-09-16T03:12:13;12.90;99.90
12841;DHT22;6487;48.626;12.486;2022-09-16T03:15:20;12.90;99.90
12841;DHT22;6487;48.626;12.486;2022-09-16T03:18:28;12.90;99.90
12841;DHT22;6487;48.626;12.486;2022-09-16T03:21:15;12.90;99.90
12841;DHT22;6487;48.626;12.486;2022-09-16T03:23:51;12.90;99.90
12841;DHT22;6487;48.626;12.486;2022-09-16T03:26:31;12.90;99.90
12841;DHT22;6487;48.626;12.486;2022-09-16T03:29:09;12.80;99.90
12841;DHT22;6487;48.626;12.486;2022-09-16T03:31:46;12.80;99.90
12841;DHT22;6487;48.626;12.486;2022-09-16T03:34:22;12.80;99.90
12841;DHT22;6487;48.626;12.486;2022-09-16T03:36:57;12.80;99.90
12841;DHT22;6487;48.626;12.486;2022-09-16T03:39:28;12.80;99.90
12841;DHT22;6487;48.626;12.486;2022-09-16T03:42:00;12.80;99.90
12841;DHT22;6487;48.626;12.486;2022-09-16T03:44:33;12.90;99.90
12841;DHT22;6487;48.626;12.486;2022-09-16T03:47:02;12.90;99.90
12841;DHT22;6487;48.626;12.486;2022-09-16T03:49:31;12.90;99.90
12841;DHT22;6487;48.626;12.486;2022-09-16T03:52:01;12.90;99.90
12841;DHT22;6487;48.626;12.486;2022-09-16T03:54:31;13.00;99.90
12841;DHT22;6487;48.626;12.486;2022-09-16T03:56:59;13.00;99.90
12841;DHT22;6487;48.626;12.486;2022-09-16T03:59:28;13.00;99.90
12841;DHT22;6487;48.626;12.486;2022-09-16T04:01:56;13.00;99.90
12841;DHT22;6487;48.626;12.486;2022-09-16T04:04:25;13.00;99.90
12841;DHT22;6487;48.626;12.486;2022-09-16T04:06:53;13.00;99.90
12841;DHT22;6487;48.626;12.486;2022-09-16T04:09:22;13.00;99.90
12841;DHT22;6487;48.626;12.486;2022-09-16T04:11:51;13.00;99.90
12841;DHT22;6487;48.626;12.486;2022-09-16T04:14:19;13.00;99.90
12841;DHT22;6487;48.626;12.486;2022-09-16T04:16:47;13.00;99.90
12841;DHT22;6487;48.626;12.486;2022-09-16T04:19:15;13.00;99.90
12841;DHT22;6487;48.626;12.486;2022-09-16T04:21:44;13.00;99.90
12841;DHT22;6487;48.626;12.486;2022-09-16T04:24:12;13.00;99.90
12841;DHT22;6487;48.626;12.486;2022-09-16T04:26:42;13.00;99.90
12841;DHT22;6487;48.626;12.486;2022-09-16T04:29:11;13.00;99.90
12841;DHT22;6487;48.626;12.486;2022-09-16T04:31:39;12.90;99.90
12841;DHT22;6487;48.626;12.486;2022-09-16T04:34:08;13.00;99.90
12841;DHT22;6487;48.626;12.486;2022-09-16T04:36:38;13.00;99.90
12841;DHT22;6487;48.626;12.486;2022-09-16T04:39:06;13.00;99.90
12841;DHT22;6487;48.626;12.486;2022-09-16T04:41:35;13.00;99.90
12841;DHT22;6487;48.626;12.486;2022-09-16T04:44:04;13.10;99.90
12841;DHT22;6487;48.626;12.486;2022-09-16T04:46:33;13.10;99.90
12841;DHT22;6487;48.626;12.486;2022-09-16T04:49:01;13.00;99.90
12841;DHT22;6487;48.626;12.486;2022-09-16T04:51:30;13.10;99.90
12841;DHT22;6487;48.626;12.486;2022-09-16T04:53:59;13.10;99.90
12841;DHT22;6487;48.626;12.486;2022-09-16T04:56:28;13.10;99.90
12841;DHT22;6487;48.626;12.486;2022-09-16T04:59:00;13.10;99.90
12841;DHT22;6487;48.626;12.486;2022-09-16T05:01:32;13.10;99.90
12841;DHT22;6487;48.626;12.486;2022-09-16T05:04:04;13.20;99.90
12841;DHT22;6487;48.626;12.486;2022-09-16T05:06:35;13.10;99.90
12841;DHT22;6487;48.626;12.486;2022-09-16T05:09:04;13.20;99.90
12841;DHT22;6487;48.626;12.486;2022-09-16T05:11:34;13.10;99.90
12841;DHT22;6487;48.626;12.486;2022-09-16T05:14:05;13.20;99.90
12841;DHT22;6487;48.626;12.486;2022-09-16T05:16:36;13.20;99.90
12841;DHT22;6487;48.626;12.486;2022-09-16T05:19:05;13.10;99.90
12841;DHT22;6487;48.626;12.486;2022-09-16T05:21:35;13.10;99.90
12841;DHT22;6487;48.626;12.486;2022-09-16T05:24:05;13.20;99.90
12841;DHT22;6487;48.626;12.486;2022-09-16T05:26:37;13.20;99.90
12841;DHT22;6487;48.626;12.486;2022-09-16T05:29:09;13.30;99.90
12841;DHT22;6487;48.626;12.486;2022-09-16T05:31:41;13.40;99.90
12841;DHT22;6487;48.626;12.486;2022-09-16T05:34:11;13.40;99.90
12841;DHT22;6487;48.626;12.486;2022-09-16T05:36:42;13.40;99.90
12841;DHT22;6487;48.626;12.486;2022-09-16T05:39:13;13.40;99.90
12841;DHT22;6487;48.626;12.486;2022-09-16T05:41:52;13.40;99.90
12841;DHT22;6487;48.626;12.486;2022-09-16T05:44:21;13.40;99.90
12841;DHT22;6487;48.626;12.486;2022-09-16T05:46:51;13.40;99.90
12841;DHT22;6487;48.626;12.486;2022-09-16T05:49:20;13.30;99.90
12841;DHT22;6487;48.626;12.486;2022-09-16T05:51:49;13.40;99.90
12841;DHT22;6487;48.626;12.486;2022-09-16T05:54:19;13.40;99.90
12841;DHT22;6487;48.626;12.486;2022-09-16T05:56:51;13.50;99.90
12841;DHT22;6487;48.626;12.486;2022-09-16T05:59:19;13.60;99.90
12841;DHT22;6487;48.626;12.486;2022-09-16T06:01:50;13.60;99.90
12841;DHT22;6487;48.626;12.486;2022-09-16T06:04:19;13.50;99.90
12841;DHT22;6487;48.626;12.486;2022-09-16T06:06:47;13.60;99.90
12841;DHT22;6487;48.626;12.486;2022-09-16T06:09:17;13.70;99.90
12841;DHT22;6487;48.626;12.486;2022-09-16T06:11:47;13.70;99.90
12841;DHT22;6487;48.626;12.486;2022-09-16T06:14:18;13.70;99.90
12841;DHT22;6487;48.626;12.486;2022-09-16T06:16:48;13.80;99.90
12841;DHT22;6487;48.626;12.486;2022-09-16T06:19:18;13.80;99.90
12841;DHT22;6487;48.626;12.486;2022-09-16T06:21:46;13.80;99.90
12841;DHT22;6487;48.626;12.486;2022-09-16T06:24:16;13.70;99.90
12841;DHT22;6487;48.626;12.486;2022-09-16T06:26:47;13.70;99.90
12841;DHT22;6487;48.626;12.486;2022-09-16T06:29:16;13.80;99.90
12841;DHT22;6487;48.626;12.486;2022-09-16T06:31:44;13.80;99.90
12841;DHT22;6487;48.626;12.486;2022-09-16T06:34:14;13.90;99.90
12841;DHT22;6487;48.626;12.486;2022-09-16T06:36:45;13.90;99.90
12841;DHT22;6487;48.626;12.486;2022-09-16T06:39:15;13.90;99.90
12841;DHT22;6487;48.626;12.486;2022-09-16T06:41:44;13.90;99.90
12841;DHT22;6487;48.626;12.486;2022-09-16T06:44:12;14.00;99.90
12841;DHT22;6487;48.626;12.486;2022-09-16T06:46:40;14.10;99.90
12841;DHT22;6487;48.626;12.486;2022-09-16T06:49:10;14.10;99.90
12841;DHT22;6487;48.626;12.486;2022-09-16T06:51:38;14.20;99.90
12841;DHT22;6487;48.626;12.486;2022-09-16T06:54:09;14.30;99.90
12841;DHT22;6487;48.626;12.486;2022-09-16T06:56:38;14.30;99.90
12841;DHT22;6487;48.626;12.486;2022-09-16T06:59:08;14.40;99.90
12841;DHT22;6487;48.626;12.486;2022-09-16T07:01:36;14.40;99.90
12841;DHT22;6487;48.626;12.486;2022-09-16T07:04:07;14.40;99.90
12841;DHT22;6487;48.626;12.486;2022-09-16T07:06:39;14.40;99.90
12841;DHT22;6487;48.626;12.486;2022-09-16T07:09:28;14.50;99.90
12841;DHT22;6487;48.626;12.486;2022-09-16T07:11:58;14.50;99.90
12841;DHT22;6487;48.626;12.486;2022-09-16T07:14:27;14.50;99.90
12841;DHT22;6487;48.626;12.486;2022-09-16T07:16:58;14.50;99.90
12841;DHT22;6487;48.626;12.486;2022-09-16T07:19:27;14.50;99.90
12841;DHT22;6487;48.626;12.486;2022-09-16T07:21:55;14.60;99.90
12841;DHT22;6487;48.626;12.486;2022-09-16T07:24:24;14.60;99.90
12841;DHT22;6487;48.626;12.486;2022-09-16T07:26:53;14.60;99.90
12841;DHT22;6487;48.626;12.486;2022-09-16T07:29:22;14.70;99.90
12841;DHT22;6487;48.626;12.486;2022-09-16T07:31:50;14.70;99.90
12841;DHT22;6487;48.626;12.486;2022-09-16T07:34:18;14.80;99.90
12841;DHT22;6487;48.626;12.486;2022-09-16T07:36:48;14.90;99.90
12841;DHT22;6487;48.626;12.486;2022-09-16T07:39:17;15.00;99.90
12841;DHT22;6487;48.626;12.486;2022-09-16T07:41:47;15.00;99.90
12841;DHT22;6487;48.626;12.486;2022-09-16T07:44:18;15.00;99.90
12841;DHT22;6487;48.626;12.486;2022-09-16T07:46:47;15.00;99.90
12841;DHT22;6487;48.626;12.486;2022-09-16T07:49:17;15.10;99.90
12841;DHT22;6487;48.626;12.486;2022-09-16T07:51:45;15.20;99.90
12841;DHT22;6487;48.626;12.486;2022-09-16T07:54:15;15.20;99.90
12841;DHT22;6487;48.626;12.486;2022-09-16T07:56:45;15.20;99.90
12841;DHT22;6487;48.626;12.486;2022-09-16T07:59:16;15.20;99.90
12841;DHT22;6487;48.626;12.486;2022-09-16T08:01:47;15.30;99.90
12841;DHT22;6487;48.626;12.486;2022-09-16T08:04:16;15.30;99.90
12841;DHT22;6487;48.626;12.486;2022-09-16T08:06:46;15.20;99.90
12841;DHT22;6487;48.626;12.486;2022-09-16T08:09:14;15.20;99.90
12841;DHT22;6487;48.626;12.486;2022-09-16T08:12:04;15.30;99.90
12841;DHT22;6487;48.626;12.486;2022-09-16T08:14:35;15.30;99.90
12841;DHT22;6487;48.626;12.486;2022-09-16T08:17:04;15.40;99.90
12841;DHT22;6487;48.626;12.486;2022-09-16T08:19:33;15.30;99.90
12841;DHT22;6487;48.626;12.486;2022-09-16T08:22:01;15.40;99.90
12841;DHT22;6487;48.626;12.486;2022-09-16T08:24:30;15.40;99.90
12841;DHT22;6487;48.626;12.486;2022-09-16T08:26:58;15.50;99.90
12841;DHT22;6487;48.626;12.486;2022-09-16T08:29:26;15.50;99.90
12841;DHT22;6487;48.626;12.486;2022-09-16T08:31:56;15.50;99.90
12841;DHT22;6487;48.626;12.486;2022-09-16T08:34:25;15.50;99.90
12841;DHT22;6487;48.626;12.486;2022-09-16T08:36:53;15.60;99.90
12841;DHT22;6487;48.626;12.486;2022-09-16T08:39:21;15.60;99.90
12841;DHT22;6487;48.626;12.486;2022-09-16T08:42:27;15.60;99.90
12841;DHT22;6487;48.626;12.486;2022-09-16T08:45:05;15.60;99.90
12841;DHT22;6487;48.626;12.486;2022-09-16T08:47:52;15.70;99.90
12841;DHT22;6487;48.626;12.486;2022-09-16T08:50:32;15.70;99.90
12841;DHT22;6487;48.626;12.486;2022-09-16T08:53:06;15.70;99.90
12841;DHT22;6487;48.626;12.486;2022-09-16T08:55:41;15.80;99.90
12841;DHT22;6487;48.626;12.486;2022-09-16T08:58:14;15.90;99.90
12841;DHT22;6487;48.626;12.486;2022-09-16T09:00:46;15.90;99.90
12841;DHT22;6487;48.626;12.486;2022-09-16T09:03:30;16.00;99.90
12841;DHT22;6487;48.626;12.486;2022-09-16T09:06:03;15.90;99.90
12841;DHT22;6487;48.626;12.486;2022-09-16T09:08:43;16.00;99.90
12841;DHT22;6487;48.626;12.486;2022-09-16T09:11:18;16.00;99.90
12841;DHT22;6487;48.626;12.486;2022-09-16T09:14:00;16.10;99.90
12841;DHT22;6487;48.626;12.486;2022-09-16T09:16:39;16.10;99.90
12841;DHT22;6487;48.626;12.486;2022-09-16T09:19:22;16.20;99.90
12841;DHT22;6487;48.626;12.486;2022-09-16T09:21:58;16.20;99.90
12841;DHT22;6487;48.626;12.486;2022-09-16T09:24:43;16.10;99.90
12841;DHT22;6487;48.626;12.486;2022-09-16T09:27:26;16.20;99.90
12841;DHT22;6487;48.626;12.486;2022-09-16T09:30:07;16.30;99.90
12841;DHT22;6487;48.626;12.486;2022-09-16T09:32:56;16.30;99.90
12841;DHT22;6487;48.626;12.486;2022-09-16T09:36:06;16.20;99.90
12841;DHT22;6487;48.626;12.486;2022-09-16T09:38:56;16.20;99.90
12841;DHT22;6487;48.626;12.486;2022-09-16T09:41:46;16.30;99.90
12841;DHT22;6487;48.626;12.486;2022-09-16T09:44:40;16.30;99.90
12841;DHT22;6487;48.626;12.486;2022-09-16T09:47:19;16.40;99.90
12841;DHT22;6487;48.626;12.486;2022-09-16T09:49:54;16.60;99.90
12841;DHT22;6487;48.626;12.486;2022-09-16T09:52:29;16.60;99.90
12841;DHT22;6487;48.626;12.486;2022-09-16T09:55:13;16.70;99.90
12841;DHT22;6487;48.626;12.486;2022-09-16T09:58:02;16.80;99.90
12841;DHT22;6487;48.626;12.486;2022-09-16T10:00:36;16.70;99.90
12841;DHT22;6487;48.626;12.486;2022-09-16T10:03:08;16.80;99.90
12841;DHT22;6487;48.626;12.486;2022-09-16T10:05:39;16.90;99.90
12841;DHT22;6487;48.626;12.486;2022-09-16T10:08:15;16.90;99.90
12841;DHT22;6487;48.626;12.486;2022-09-16T10:10:48;16.80;99.90
12841;DHT22;6487;48.626;12.486;2022-09-16T10:13:18;16.90;99.90
12841;DHT22;6487;48.626;12.486;2022-09-16T10:15:48;16.90;99.90
12841;DHT22;6487;48.626;12.486;2022-09-16T10:18:24;16.90;99.90
12841;DHT22;6487;48.626;12.486;2022-09-16T10:21:02;16.80;99.90
12841;DHT22;6487;48.626;12.486;2022-09-16T10:23:33;16.90;99.90
12841;DHT22;6487;48.626;12.486;2022-09-16T10:26:16;16.90;99.90
12841;DHT22;6487;48.626;12.486;2022-09-16T10:28:53;16.80;99.90
12841;DHT22;6487;48.626;12.486;2022-09-16T10:31:23;16.80;99.90
12841;DHT22;6487;48.626;12.486;2022-09-16T10:34:00;16.80;99.90
12841;DHT22;6487;48.626;12.486;2022-09-16T10:36:33;16.80;99.90
12841;DHT22;6487;48.626;12.486;2022-09-16T10:39:03;16.80;99.90
12841;DHT22;6487;48.626;12.486;2022-09-16T10:41:33;16.70;99.90
12841;DHT22;6487;48.626;12.486;2022-09-16T10:44:14;16.60;99.90
12841;DHT22;6487;48.626;12.486;2022-09-16T10:46:56;16.70;99.90
12841;DHT22;6487;48.626;12.486;2022-09-16T10:49:32;16.50;99.60
12841;DHT22;6487;48.626;12.486;2022-09-16T10:52:14;16.50;99.70
12841;DHT22;6487;48.626;12.486;2022-09-16T10:54:44;16.50;99.90
12841;DHT22;6487;48.626;12.486;2022-09-16T10:57:22;16.50;99.90
12841;DHT22;6487;48.626;12.486;2022-09-16T11:00:00;16.50;99.80
12841;DHT22;6487;48.626;12.486;2022-09-16T11:05:47;16.50;99.90
12841;DHT22;6487;48.626;12.486;2022-09-16T11:08:33;16.40;99.90
12841;DHT22;6487;48.626;12.486;2022-09-16T11:11:18;16.30;99.90
12841;DHT22;6487;48.626;12.486;2022-09-16T11:13:53;16.20;99.30
12841;DHT22;6487;48.626;12.486;2022-09-16T11:16:50;16.10;99.90
12841;DHT22;6487;48.626;12.486;2022-09-16T11:19:34;15.90;99.10
12841;DHT22;6487;48.626;12.486;2022-09-16T11:22:22;15.90;99.60
12841;DHT22;6487;48.626;12.486;2022-09-16T11:31:23;15.80;99.90
12841;DHT22;6487;48.626;12.486;2022-09-16T11:34:03;15.90;99.90
12841;DHT22;6487;48.626;12.486;2022-09-16T11:36:48;15.80;99.90
12841;DHT22;6487;48.626;12.486;2022-09-16T11:39:45;15.80;99.90
12841;DHT22;6487;48.626;12.486;2022-09-16T11:42:25;15.80;99.90
12841;DHT22;6487;48.626;12.486;2022-09-16T11:45:04;15.70;99.90
12841;DHT22;6487;48.626;12.486;2022-09-16T11:47:47;15.60;99.90
12841;DHT22;6487;48.626;12.486;2022-09-16T11:50:35;15.50;99.90
12841;DHT22;6487;48.626;12.486;2022-09-16T11:53:25;15.40;99.90
12841;DHT22;6487;48.626;12.486;2022-09-16T11:56:12;15.30;99.90
12841;DHT22;6487;48.626;12.486;2022-09-16T11:58:45;15.40;99.90
12841;DHT22;6487;48.626;12.486;2022-09-16T12:01:27;15.30;99.90
12841;DHT22;6487;48.626;12.486;2022-09-16T12:03:59;15.20;99.90
12841;DHT22;6487;48.626;12.486;2022-09-16T12:06:37;15.10;99.90
12841;DHT22;6487;48.626;12.486;2022-09-16T12:09:12;15.10;99.90
12841;DHT22;6487;48.626;12.486;2022-09-16T12:11:47;15.00;99.90
12841;DHT22;6487;48.626;12.486;2022-09-16T12:14:21;14.90;99.90
12841;DHT22;6487;48.626;12.486;2022-09-16T12:16:55;15.00;99.90
12841;DHT22;6487;48.626;12.486;2022-09-16T12:19:28;15.10;99.90
12841;DHT22;6487;48.626;12.486;2022-09-16T12:22:03;15.00;99.90
12841;DHT22;6487;48.626;12.486;2022-09-16T12:24:38;15.00;99.90
12841;DHT22;6487;48.626;12.486;2022-09-16T12:27:17;14.90;99.90
12841;DHT22;6487;48.626;12.486;2022-09-16T12:29:57;15.00;99.90
12841;DHT22;6487;48.626;12.486;2022-09-16T12:32:35;15.10;99.90
12841;DHT22;6487;48.626;12.486;2022-09-16T12:35:13;15.10;99.90
12841;DHT22;6487;48.626;12.486;2022-09-16T12:37:46;15.10;99.90
12841;DHT22;6487;48.626;12.486;2022-09-16T12:40:17;15.20;99.90
12841;DHT22;6487;48.626;12.486;2022-09-16T12:43:25;15.10;99.90
12841;DHT22;6487;48.626;12.486;2022-09-16T12:46:34;15.20;99.90
12841;DHT22;6487;48.626;12.486;2022-09-16T12:49:50;15.20;99.90
12841;DHT22;6487;48.626;12.486;2022-09-16T12:56:04;15.10;99.90
12841;DHT22;6487;48.626;12.486;2022-09-16T12:59:05;15.20;99.90
12841;DHT22;6487;48.626;12.486;2022-09-16T13:01:43;15.10;99.90
12841;DHT22;6487;48.626;12.486;2022-09-16T13:04:16;15.20;99.90
12841;DHT22;6487;48.626;12.486;2022-09-16T13:06:49;15.30;99.90
12841;DHT22;6487;48.626;12.486;2022-09-16T13:09:22;15.20;99.90
12841;DHT22;6487;48.626;12.486;2022-09-16T13:11:53;15.20;99.90
12841;DHT22;6487;48.626;12.486;2022-09-16T13:14:44;15.10;99.90
12841;DHT22;6487;48.626;12.486;2022-09-16T13:17:26;15.10;99.90
12841;DHT22;6487;48.626;12.486;2022-09-16T13:20:01;15.00;99.90
12841;DHT22;6487;48.626;12.486;2022-09-16T13:22:37;14.80;99.90
12841;DHT22;6487;48.626;12.486;2022-09-16T13:25:20;14.80;99.90
12841;DHT22;6487;48.626;12.486;2022-09-16T13:27:56;14.60;99.90
12841;DHT22;6487;48.626;12.486;2022-09-16T13:30:34;14.70;99.90
12841;DHT22;6487;48.626;12.486;2022-09-16T13:33:20;14.60;99.90
12841;DHT22;6487;48.626;12.486;2022-09-16T13:39:02;14.60;99.90
12841;DHT22;6487;48.626;12.486;2022-09-16T13:41:34;14.70;99.90
12841;DHT22;6487;48.626;12.486;2022-09-16T13:44:28;14.60;99.90
12841;DHT22;6487;48.626;12.486;2022-09-16T13:47:17;14.60;99.90
12841;DHT22;6487;48.626;12.486;2022-09-16T13:49:58;14.70;99.90
12841;DHT22;6487;48.626;12.486;2022-09-16T13:52:29;14.60;99.90
12841;DHT22;6487;48.626;12.486;2022-09-16T13:55:01;14.50;99.90
12841;DHT22;6487;48.626;12.486;2022-09-16T13:57:44;14.40;99.90
12841;DHT22;6487;48.626;12.486;2022-09-16T14:00:20;14.50;99.90
12841;DHT22;6487;48.626;12.486;2022-09-16T14:02:59;14.50;99.90
12841;DHT22;6487;48.626;12.486;2022-09-16T14:06:17;14.50;99.90
12841;DHT22;6487;48.626;12.486;2022-09-16T14:09:04;14.50;99.90
12841;DHT22;6487;48.626;12.486;2022-09-16T14:11:45;14.40;99.90
12841;DHT22;6487;48.626;12.486;2022-09-16T14:14:19;14.50;99.90
12841;DHT22;6487;48.626;12.486;2022-09-16T14:17:15;14.40;99.90
12841;DHT22;6487;48.626;12.486;2022-09-16T14:19:48;14.50;99.90
12841;DHT22;6487;48.626;12.486;2022-09-16T14:22:20;14.60;99.90
12841;DHT22;6487;48.626;12.486;2022-09-16T14:24:51;14.50;99.90
12841;DHT22;6487;48.626;12.486;2022-09-16T14:27:39;14.60;99.90
12841;DHT22;6487;48.626;12.486;2022-09-16T14:30:13;14.60;99.90
12841;DHT22;6487;48.626;12.486;2022-09-16T14:32:44;14.60;99.90
12841;DHT22;6487;48.626;12.486;2022-09-16T14:35:17;14.60;99.90
12841;DHT22;6487;48.626;12.486;2022-09-16T14:37:50;14.50;99.90
12841;DHT22;6487;48.626;12.486;2022-09-16T14:40:21;14.50;99.90
12841;DHT22;6487;48.626;12.486;2022-09-16T14:42:57;14.60;99.90
12841;DHT22;6487;48.626;12.486;2022-09-16T14:45:28;14.60;99.90
12841;DHT22;6487;48.626;12.486;2022-09-16T14:48:00;14.60;99.90
12841;DHT22;6487;48.626;12.486;2022-09-16T14:50:35;14.70;99.90
12841;DHT22;6487;48.626;12.486;2022-09-16T14:53:17;14.60;99.90
12841;DHT22;6487;48.626;12.486;2022-09-16T14:56:01;14.70;99.90
12841;DHT22;6487;48.626;12.486;2022-09-16T14:58:33;14.70;99.90
12841;DHT22;6487;48.626;12.486;2022-09-16T15:01:05;14.60;99.90
12841;DHT22;6487;48.626;12.486;2022-09-16T15:03:45;14.60;99.90
12841;DHT22;6487;48.626;12.486;2022-09-16T15:06:19;14.60;99.90
12841;DHT22;6487;48.626;12.486;2022-09-16T15:08:53;14.60;99.90
12841;DHT22;6487;48.626;12.486;2022-09-16T15:11:26;14.60;99.90
12841;DHT22;6487;48.626;12.486;2022-09-16T15:14:15;14.50;99.90
12841;DHT22;6487;48.626;12.486;2022-09-16T15:16:46;14.50;99.90
12841;DHT22;6487;48.626;12.486;2022-09-16T15:19:18;14.40;99.90
12841;DHT22;6487;48.626;12.486;2022-09-16T15:21:48;14.40;99.90
12841;DHT22;6487;48.626;12.486;2022-09-16T15:24:20;14.40;99.90
12841;DHT22;6487;48.626;12.486;2022-09-16T15:26:50;14.50;99.90
12841;DHT22;6487;48.626;12.486;2022-09-16T15:29:30;14.50;99.90
12841;DHT22;6487;48.626;12.486;2022-09-16T15:32:13;14.50;99.90
12841;DHT22;6487;48.626;12.486;2022-09-16T15:34:43;14.60;99.90
12841;DHT22;6487;48.626;12.486;2022-09-16T15:37:29;14.50;99.90
12841;DHT22;6487;48.626;12.486;2022-09-16T15:40:28;14.50;99.90
12841;DHT22;6487;48.626;12.486;2022-09-16T15:43:08;14.40;99.90
12841;DHT22;6487;48.626;12.486;2022-09-16T15:45:42;14.20;99.90
12841;DHT22;6487;48.626;12.486;2022-09-16T15:48:14;14.30;99.90
12841;DHT22;6487;48.626;12.486;2022-09-16T15:50:46;14.20;99.90
12841;DHT22;6487;48.626;12.486;2022-09-16T15:53:18;14.10;99.90
12841;DHT22;6487;48.626;12.486;2022-09-16T15:55:56;13.90;99.90
12841;DHT22;6487;48.626;12.486;2022-09-16T15:58:36;14.10;99.90
12841;DHT22;6487;48.626;12.486;2022-09-16T16:01:15;14.20;99.90
12841;DHT22;6487;48.626;12.486;2022-09-16T16:03:53;14.30;99.90
12841;DHT22;6487;48.626;12.486;2022-09-16T16:06:46;14.30;99.90
12841;DHT22;6487;48.626;12.486;2022-09-16T16:09:38;14.30;99.90
12841;DHT22;6487;48.626;12.486;2022-09-16T16:12:10;14.40;99.90
12841;DHT22;6487;48.626;12.486;2022-09-16T16:14:40;14.40;99.90
12841;DHT22;6487;48.626;12.486;2022-09-16T16:17:11;14.30;99.90
12841;DHT22;6487;48.626;12.486;2022-09-16T16:19:41;14.40;99.90
12841;DHT22;6487;48.626;12.486;2022-09-16T16:22:12;14.40;99.90
12841;DHT22;6487;48.626;12.486;2022-09-16T16:24:41;14.30;99.90
12841;DHT22;6487;48.626;12.486;2022-09-16T16:27:09;14.30;99.90
12841;DHT22;6487;48.626;12.486;2022-09-16T16:29:37;14.20;99.90
12841;DHT22;6487;48.626;12.486;2022-09-16T16:32:07;14.20;99.90
12841;DHT22;6487;48.626;12.486;2022-09-16T16:34:40;14.20;99.90
12841;DHT22;6487;48.626;12.486;2022-09-16T16:37:10;14.20;99.90
12841;DHT22;6487;48.626;12.486;2022-09-16T16:40:01;14.20;99.90
12841;DHT22;6487;48.626;12.486;2022-09-16T16:42:30;14.20;99.90